Mirandiba, Brazil
Current Conditions -  °F | °C
As of 11:00 AM on Friday 19 Dec 2014 (Local Time) from SBJU Reporting Station
Few Clouds Few Clouds  
Wind Chill: 90°   Ceiling: Unl
Heat Index: 95°   Visibility: 6mi
Dew Point: 70°   Wind: 8mph
Humidity: 52%   Direction: 50°NE
Pressure: 29.97"   Gusts: NA
Location:  8.12°S, 38.73°W
Report Text: SBJU 191400Z 05007KT 9999 FEW022 32/21 Q1015
Loading
Personal Weather Stations






























Interactive Weather Map New forecast layout! Learn more

10-Day Weather Forecast

Advertisements
Track Severe Weather on mobile